sensor_id;sensor_type;location;lat;lon;timestamp;temperature;humidity
40454;DHT22;26160;51.858;4.398;2023-04-15T00:01:44;10.10;99.90
40454;DHT22;26160;51.858;4.398;2023-04-15T00:04:10;10.10;99.90
40454;DHT22;26160;51.858;4.398;2023-04-15T00:06:36;10.10;99.90
40454;DHT22;26160;51.858;4.398;2023-04-15T00:09:04;10.10;99.90
40454;DHT22;26160;51.858;4.398;2023-04-15T00:11:30;10.10;99.90
40454;DHT22;26160;51.858;4.398;2023-04-15T00:13:56;10.00;99.90
40454;DHT22;26160;51.858;4.398;2023-04-15T00:16:23;9.90;99.90
40454;DHT22;26160;51.858;4.398;2023-04-15T00:18:50;9.90;99.90
40454;DHT22;26160;51.858;4.398;2023-04-15T00:21:16;9.90;99.90
40454;DHT22;26160;51.858;4.398;2023-04-15T00:23:42;9.90;99.90
40454;DHT22;26160;51.858;4.398;2023-04-15T00:26:08;9.90;99.90
40454;DHT22;26160;51.858;4.398;2023-04-15T00:28:35;9.90;99.90
40454;DHT22;26160;51.858;4.398;2023-04-15T00:31:01;9.90;99.90
40454;DHT22;26160;51.858;4.398;2023-04-15T00:33:27;9.90;99.90
40454;DHT22;26160;51.858;4.398;2023-04-15T00:35:53;9.90;99.90
40454;DHT22;26160;51.858;4.398;2023-04-15T00:38:19;9.90;99.90
40454;DHT22;26160;51.858;4.398;2023-04-15T00:40:45;9.80;99.90
40454;DHT22;26160;51.858;4.398;2023-04-15T00:43:11;9.80;99.90
40454;DHT22;26160;51.858;4.398;2023-04-15T00:45:37;9.70;99.90
40454;DHT22;26160;51.858;4.398;2023-04-15T00:48:04;9.60;99.90
40454;DHT22;26160;51.858;4.398;2023-04-15T00:50:30;9.60;99.90
40454;DHT22;26160;51.858;4.398;2023-04-15T00:52:56;9.60;99.90
40454;DHT22;26160;51.858;4.398;2023-04-15T00:55:22;9.60;99.90
40454;DHT22;26160;51.858;4.398;2023-04-15T00:57:49;9.60;99.90
40454;DHT22;26160;51.858;4.398;2023-04-15T01:02:57;9.50;99.90
40454;DHT22;26160;51.858;4.398;2023-04-15T01:05:27;9.50;99.90
40454;DHT22;26160;51.858;4.398;2023-04-15T01:07:54;9.40;99.90
40454;DHT22;26160;51.858;4.398;2023-04-15T01:10:20;9.40;99.90
40454;DHT22;26160;51.858;4.398;2023-04-15T01:12:47;9.40;99.90
40454;DHT22;26160;51.858;4.398;2023-04-15T01:15:13;9.40;99.90
40454;DHT22;26160;51.858;4.398;2023-04-15T01:17:39;9.30;99.90
40454;DHT22;26160;51.858;4.398;2023-04-15T01:20:06;9.30;99.90
40454;DHT22;26160;51.858;4.398;2023-04-15T01:22:34;9.30;99.90
40454;DHT22;26160;51.858;4.398;2023-04-15T01:25:16;9.20;99.90
40454;DHT22;26160;51.858;4.398;2023-04-15T01:27:42;9.20;99.90
40454;DHT22;26160;51.858;4.398;2023-04-15T01:30:09;9.20;99.90
40454;DHT22;26160;51.858;4.398;2023-04-15T01:32:35;9.20;99.90
40454;DHT22;26160;51.858;4.398;2023-04-15T01:35:01;9.30;99.90
40454;DHT22;26160;51.858;4.398;2023-04-15T01:37:28;9.20;99.90
40454;DHT22;26160;51.858;4.398;2023-04-15T01:39:54;9.20;99.90
40454;DHT22;26160;51.858;4.398;2023-04-15T01:42:22;9.20;99.90
40454;DHT22;26160;51.858;4.398;2023-04-15T01:44:48;9.30;99.90
40454;DHT22;26160;51.858;4.398;2023-04-15T01:47:14;9.20;99.90
40454;DHT22;26160;51.858;4.398;2023-04-15T01:49:40;9.30;99.90
40454;DHT22;26160;51.858;4.398;2023-04-15T01:52:06;9.20;99.90
40454;DHT22;26160;51.858;4.398;2023-04-15T01:54:32;9.20;99.90
40454;DHT22;26160;51.858;4.398;2023-04-15T01:56:58;9.20;99.90
40454;DHT22;26160;51.858;4.398;2023-04-15T01:59:24;9.20;99.90
40454;DHT22;26160;51.858;4.398;2023-04-15T02:01:51;9.20;99.90
40454;DHT22;26160;51.858;4.398;2023-04-15T02:04:17;9.20;99.90
40454;DHT22;26160;51.858;4.398;2023-04-15T02:06:43;9.20;99.90
40454;DHT22;26160;51.858;4.398;2023-04-15T02:09:09;9.10;99.90
40454;DHT22;26160;51.858;4.398;2023-04-15T02:11:36;9.10;99.90
40454;DHT22;26160;51.858;4.398;2023-04-15T02:14:02;9.10;99.90
40454;DHT22;26160;51.858;4.398;2023-04-15T02:16:32;9.10;99.90
40454;DHT22;26160;51.858;4.398;2023-04-15T02:18:59;9.10;99.90
40454;DHT22;26160;51.858;4.398;2023-04-15T02:21:26;9.10;99.90
40454;DHT22;26160;51.858;4.398;2023-04-15T02:23:52;9.10;99.90
40454;DHT22;26160;51.858;4.398;2023-04-15T02:26:22;9.10;99.90
40454;DHT22;26160;51.858;4.398;2023-04-15T02:28:49;9.10;99.90
40454;DHT22;26160;51.858;4.398;2023-04-15T02:31:18;9.00;99.90
40454;DHT22;26160;51.858;4.398;2023-04-15T02:33:46;9.00;99.90
40454;DHT22;26160;51.858;4.398;2023-04-15T02:36:12;8.90;99.90
40454;DHT22;26160;51.858;4.398;2023-04-15T02:38:38;8.90;99.90
40454;DHT22;26160;51.858;4.398;2023-04-15T02:41:11;8.90;99.90
40454;DHT22;26160;51.858;4.398;2023-04-15T02:43:37;8.80;99.90
40454;DHT22;26160;51.858;4.398;2023-04-15T02:46:04;8.80;99.90
40454;DHT22;26160;51.858;4.398;2023-04-15T02:48:31;8.70;99.90
40454;DHT22;26160;51.858;4.398;2023-04-15T02:51:13;8.70;99.90
40454;DHT22;26160;51.858;4.398;2023-04-15T02:53:40;8.60;99.90
40454;DHT22;26160;51.858;4.398;2023-04-15T02:56:07;8.60;99.90
40454;DHT22;26160;51.858;4.398;2023-04-15T02:58:34;8.50;99.90
40454;DHT22;26160;51.858;4.398;2023-04-15T03:01:00;8.50;99.90
40454;DHT22;26160;51.858;4.398;2023-04-15T03:03:27;8.50;99.90
40454;DHT22;26160;51.858;4.398;2023-04-15T03:05:53;8.50;99.90
40454;DHT22;26160;51.858;4.398;2023-04-15T03:08:19;8.50;99.90
40454;DHT22;26160;51.858;4.398;2023-04-15T03:10:46;8.50;99.90
40454;DHT22;26160;51.858;4.398;2023-04-15T03:13:12;8.50;99.90
40454;DHT22;26160;51.858;4.398;2023-04-15T03:15:38;8.50;99.90
40454;DHT22;26160;51.858;4.398;2023-04-15T03:18:04;8.50;99.90
40454;DHT22;26160;51.858;4.398;2023-04-15T03:20:31;8.50;99.90
40454;DHT22;26160;51.858;4.398;2023-04-15T03:22:57;8.50;99.90
40454;DHT22;26160;51.858;4.398;2023-04-15T03:25:23;8.50;99.90
40454;DHT22;26160;51.858;4.398;2023-04-15T03:27:49;8.50;99.90
40454;DHT22;26160;51.858;4.398;2023-04-15T03:30:15;8.50;99.90
40454;DHT22;26160;51.858;4.398;2023-04-15T03:32:41;8.40;99.90
40454;DHT22;26160;51.858;4.398;2023-04-15T03:35:08;8.50;99.90
40454;DHT22;26160;51.858;4.398;2023-04-15T03:37:34;8.40;99.90
40454;DHT22;26160;51.858;4.398;2023-04-15T03:40:01;8.40;99.90
40454;DHT22;26160;51.858;4.398;2023-04-15T03:42:27;8.30;99.90
40454;DHT22;26160;51.858;4.398;2023-04-15T03:44:53;8.30;99.90
40454;DHT22;26160;51.858;4.398;2023-04-15T03:47:19;8.30;99.90
40454;DHT22;26160;51.858;4.398;2023-04-15T03:49:45;8.20;99.90
40454;DHT22;26160;51.858;4.398;2023-04-15T03:52:11;8.20;99.90
40454;DHT22;26160;51.858;4.398;2023-04-15T03:54:37;8.20;99.90
40454;DHT22;26160;51.858;4.398;2023-04-15T03:57:03;8.20;99.90
40454;DHT22;26160;51.858;4.398;2023-04-15T03:59:30;8.20;99.90
40454;DHT22;26160;51.858;4.398;2023-04-15T04:01:56;8.20;99.90
40454;DHT22;26160;51.858;4.398;2023-04-15T04:04:22;8.20;99.90
40454;DHT22;26160;51.858;4.398;2023-04-15T04:06:48;8.20;99.90
40454;DHT22;26160;51.858;4.398;2023-04-15T04:09:14;8.20;99.90
40454;DHT22;26160;51.858;4.398;2023-04-15T04:11:41;8.20;99.90
40454;DHT22;26160;51.858;4.398;2023-04-15T04:14:07;8.20;99.90
40454;DHT22;26160;51.858;4.398;2023-04-15T04:16:33;8.20;99.90
40454;DHT22;26160;51.858;4.398;2023-04-15T04:18:59;8.20;99.90
40454;DHT22;26160;51.858;4.398;2023-04-15T04:21:25;8.20;99.90
40454;DHT22;26160;51.858;4.398;2023-04-15T04:23:51;8.10;99.90
40454;DHT22;26160;51.858;4.398;2023-04-15T04:26:17;8.10;99.90
40454;DHT22;26160;51.858;4.398;2023-04-15T04:28:44;8.10;99.90
40454;DHT22;26160;51.858;4.398;2023-04-15T04:31:10;8.10;99.90
40454;DHT22;26160;51.858;4.398;2023-04-15T04:33:36;8.00;99.90
40454;DHT22;26160;51.858;4.398;2023-04-15T04:36:03;8.00;99.90
40454;DHT22;26160;51.858;4.398;2023-04-15T04:38:29;8.00;99.90
40454;DHT22;26160;51.858;4.398;2023-04-15T04:40:55;8.00;99.90
40454;DHT22;26160;51.858;4.398;2023-04-15T04:43:21;8.00;99.90
40454;DHT22;26160;51.858;4.398;2023-04-15T04:45:47;8.00;99.90
40454;DHT22;26160;51.858;4.398;2023-04-15T04:48:13;7.90;99.90
40454;DHT22;26160;51.858;4.398;2023-04-15T04:50:39;7.80;99.90
40454;DHT22;26160;51.858;4.398;2023-04-15T04:53:06;7.80;99.90
40454;DHT22;26160;51.858;4.398;2023-04-15T04:55:32;7.70;99.90
40454;DHT22;26160;51.858;4.398;2023-04-15T04:57:58;7.70;99.90
40454;DHT22;26160;51.858;4.398;2023-04-15T05:00:24;7.60;99.90
40454;DHT22;26160;51.858;4.398;2023-04-15T05:02:50;7.60;99.90
40454;DHT22;26160;51.858;4.398;2023-04-15T05:05:16;7.50;99.90
40454;DHT22;26160;51.858;4.398;2023-04-15T05:07:43;7.50;99.90
40454;DHT22;26160;51.858;4.398;2023-04-15T05:10:09;7.50;99.90
40454;DHT22;26160;51.858;4.398;2023-04-15T05:12:35;7.60;99.90
40454;DHT22;26160;51.858;4.398;2023-04-15T05:15:04;7.60;99.90
40454;DHT22;26160;51.858;4.398;2023-04-15T05:17:31;7.70;99.90
40454;DHT22;26160;51.858;4.398;2023-04-15T05:19:58;7.70;99.90
40454;DHT22;26160;51.858;4.398;2023-04-15T05:22:24;7.60;99.90
40454;DHT22;26160;51.858;4.398;2023-04-15T05:24:50;7.70;99.90
40454;DHT22;26160;51.858;4.398;2023-04-15T05:27:16;7.70;99.90
40454;DHT22;26160;51.858;4.398;2023-04-15T05:29:44;7.80;99.90
40454;DHT22;26160;51.858;4.398;2023-04-15T05:32:10;7.80;99.90
40454;DHT22;26160;51.858;4.398;2023-04-15T05:34:36;7.90;99.90
40454;DHT22;26160;51.858;4.398;2023-04-15T05:37:02;8.00;99.90
40454;DHT22;26160;51.858;4.398;2023-04-15T05:39:28;8.00;99.90
40454;DHT22;26160;51.858;4.398;2023-04-15T05:41:54;8.10;99.90
40454;DHT22;26160;51.858;4.398;2023-04-15T05:44:20;8.10;99.90
40454;DHT22;26160;51.858;4.398;2023-04-15T05:46:46;8.20;99.90
40454;DHT22;26160;51.858;4.398;2023-04-15T05:49:12;8.30;99.90
40454;DHT22;26160;51.858;4.398;2023-04-15T05:51:39;8.30;99.90
40454;DHT22;26160;51.858;4.398;2023-04-15T05:54:05;8.40;99.90
40454;DHT22;26160;51.858;4.398;2023-04-15T05:56:31;8.40;99.90
40454;DHT22;26160;51.858;4.398;2023-04-15T05:58:57;8.50;99.90
40454;DHT22;26160;51.858;4.398;2023-04-15T06:01:23;8.50;99.90
40454;DHT22;26160;51.858;4.398;2023-04-15T06:03:50;8.60;99.90
40454;DHT22;26160;51.858;4.398;2023-04-15T06:06:17;8.70;99.90
40454;DHT22;26160;51.858;4.398;2023-04-15T06:08:43;8.70;99.90
40454;DHT22;26160;51.858;4.398;2023-04-15T06:11:09;8.80;99.90
40454;DHT22;26160;51.858;4.398;2023-04-15T06:13:35;8.80;99.90
40454;DHT22;26160;51.858;4.398;2023-04-15T06:16:01;8.90;99.90
40454;DHT22;26160;51.858;4.398;2023-04-15T06:18:28;9.00;99.90
40454;DHT22;26160;51.858;4.398;2023-04-15T06:20:55;9.00;99.90
40454;DHT22;26160;51.858;4.398;2023-04-15T06:23:21;9.10;99.90
40454;DHT22;26160;51.858;4.398;2023-04-15T06:25:47;9.10;99.90
40454;DHT22;26160;51.858;4.398;2023-04-15T06:28:13;9.20;99.90
40454;DHT22;26160;51.858;4.398;2023-04-15T06:30:39;9.30;99.90
40454;DHT22;26160;51.858;4.398;2023-04-15T06:33:06;9.40;99.90
40454;DHT22;26160;51.858;4.398;2023-04-15T06:35:33;9.40;99.90
40454;DHT22;26160;51.858;4.398;2023-04-15T06:37:59;9.40;99.90
40454;DHT22;26160;51.858;4.398;2023-04-15T06:40:25;9.40;99.90
40454;DHT22;26160;51.858;4.398;2023-04-15T06:42:51;9.50;99.90
40454;DHT22;26160;51.858;4.398;2023-04-15T06:45:17;9.50;99.90
40454;DHT22;26160;51.858;4.398;2023-04-15T06:47:43;9.50;99.90
40454;DHT22;26160;51.858;4.398;2023-04-15T06:50:09;9.50;99.90
40454;DHT22;26160;51.858;4.398;2023-04-15T06:52:36;9.50;99.90
40454;DHT22;26160;51.858;4.398;2023-04-15T06:55:03;9.50;99.90
40454;DHT22;26160;51.858;4.398;2023-04-15T06:57:29;9.40;99.90
40454;DHT22;26160;51.858;4.398;2023-04-15T06:59:55;9.40;99.90
40454;DHT22;26160;51.858;4.398;2023-04-15T07:02:21;9.40;99.90
40454;DHT22;26160;51.858;4.398;2023-04-15T07:04:47;9.40;99.90
40454;DHT22;26160;51.858;4.398;2023-04-15T07:07:13;9.40;99.90
40454;DHT22;26160;51.858;4.398;2023-04-15T07:09:40;9.50;99.90
40454;DHT22;26160;51.858;4.398;2023-04-15T07:12:06;9.50;99.90
40454;DHT22;26160;51.858;4.398;2023-04-15T07:14:32;9.60;99.90
40454;DHT22;26160;51.858;4.398;2023-04-15T07:16:58;9.60;99.90
40454;DHT22;26160;51.858;4.398;2023-04-15T07:19:24;9.70;99.90
40454;DHT22;26160;51.858;4.398;2023-04-15T07:21:51;9.80;99.90
40454;DHT22;26160;51.858;4.398;2023-04-15T07:24:17;9.90;99.90
40454;DHT22;26160;51.858;4.398;2023-04-15T07:26:45;9.90;99.90
40454;DHT22;26160;51.858;4.398;2023-04-15T07:29:11;10.00;99.90
40454;DHT22;26160;51.858;4.398;2023-04-15T07:31:37;10.10;99.90
40454;DHT22;26160;51.858;4.398;2023-04-15T07:34:03;10.20;99.90
40454;DHT22;26160;51.858;4.398;2023-04-15T07:36:29;10.30;99.90
40454;DHT22;26160;51.858;4.398;2023-04-15T07:38:56;10.40;99.90
40454;DHT22;26160;51.858;4.398;2023-04-15T07:41:22;10.60;99.90
40454;DHT22;26160;51.858;4.398;2023-04-15T07:43:48;10.70;99.90
40454;DHT22;26160;51.858;4.398;2023-04-15T07:46:14;10.70;99.90
40454;DHT22;26160;51.858;4.398;2023-04-15T07:48:41;10.90;99.90
40454;DHT22;26160;51.858;4.398;2023-04-15T07:51:07;11.00;99.90
40454;DHT22;26160;51.858;4.398;2023-04-15T07:53:33;11.20;99.90
40454;DHT22;26160;51.858;4.398;2023-04-15T07:55:59;11.30;99.90
40454;DHT22;26160;51.858;4.398;2023-04-15T07:58:26;11.40;99.90
40454;DHT22;26160;51.858;4.398;2023-04-15T08:00:52;11.60;99.90
40454;DHT22;26160;51.858;4.398;2023-04-15T08:03:21;11.60;99.90
40454;DHT22;26160;51.858;4.398;2023-04-15T08:05:48;11.70;99.90
40454;DHT22;26160;51.858;4.398;2023-04-15T08:08:14;11.70;99.90
40454;DHT22;26160;51.858;4.398;2023-04-15T08:10:40;11.80;99.90
40454;DHT22;26160;51.858;4.398;2023-04-15T08:13:06;12.00;99.90
40454;DHT22;26160;51.858;4.398;2023-04-15T08:15:32;12.10;99.90
40454;DHT22;26160;51.858;4.398;2023-04-15T08:17:59;12.20;99.90
40454;DHT22;26160;51.858;4.398;2023-04-15T08:20:27;12.30;99.90
40454;DHT22;26160;51.858;4.398;2023-04-15T08:22:54;12.30;99.90
40454;DHT22;26160;51.858;4.398;2023-04-15T08:25:20;12.40;99.90
40454;DHT22;26160;51.858;4.398;2023-04-15T08:27:47;12.40;99.90
40454;DHT22;26160;51.858;4.398;2023-04-15T08:30:13;12.50;99.90
40454;DHT22;26160;51.858;4.398;2023-04-15T08:32:46;12.60;99.90
40454;DHT22;26160;51.858;4.398;2023-04-15T08:35:12;12.70;99.90
40454;DHT22;26160;51.858;4.398;2023-04-15T08:37:38;12.80;99.90
40454;DHT22;26160;51.858;4.398;2023-04-15T08:40:05;12.70;99.90
40454;DHT22;26160;51.858;4.398;2023-04-15T08:42:36;12.80;99.90
40454;DHT22;26160;51.858;4.398;2023-04-15T08:45:08;13.00;99.90
40454;DHT22;26160;51.858;4.398;2023-04-15T08:47:37;13.30;99.90
40454;DHT22;26160;51.858;4.398;2023-04-15T08:50:07;13.50;99.90
40454;DHT22;26160;51.858;4.398;2023-04-15T08:52:34;13.30;99.90
40454;DHT22;26160;51.858;4.398;2023-04-15T08:55:01;13.20;99.90
40454;DHT22;26160;51.858;4.398;2023-04-15T08:57:28;13.20;99.90
40454;DHT22;26160;51.858;4.398;2023-04-15T08:59:57;13.20;99.90
40454;DHT22;26160;51.858;4.398;2023-04-15T09:02:24;13.40;99.90
40454;DHT22;26160;51.858;4.398;2023-04-15T09:04:52;13.70;99.90
40454;DHT22;26160;51.858;4.398;2023-04-15T09:07:18;13.80;99.90
40454;DHT22;26160;51.858;4.398;2023-04-15T09:09:44;13.80;99.90
40454;DHT22;26160;51.858;4.398;2023-04-15T09:12:11;13.80;99.90
40454;DHT22;26160;51.858;4.398;2023-04-15T09:14:39;13.70;99.90
40454;DHT22;26160;51.858;4.398;2023-04-15T09:17:09;14.00;99.90
40454;DHT22;26160;51.858;4.398;2023-04-15T09:19:36;14.10;99.90
40454;DHT22;26160;51.858;4.398;2023-04-15T09:22:03;14.30;99.90
40454;DHT22;26160;51.858;4.398;2023-04-15T09:24:38;14.10;99.90
40454;DHT22;26160;51.858;4.398;2023-04-15T09:27:04;14.10;99.90
40454;DHT22;26160;51.858;4.398;2023-04-15T09:29:31;14.20;99.90
40454;DHT22;26160;51.858;4.398;2023-04-15T09:32:11;14.20;99.90
40454;DHT22;26160;51.858;4.398;2023-04-15T09:34:38;14.20;99.90
40454;DHT22;26160;51.858;4.398;2023-04-15T09:37:04;14.20;99.90
40454;DHT22;26160;51.858;4.398;2023-04-15T09:39:47;14.30;99.90
40454;DHT22;26160;51.858;4.398;2023-04-15T09:42:15;14.60;99.90
40454;DHT22;26160;51.858;4.398;2023-04-15T09:44:42;14.70;99.90
40454;DHT22;26160;51.858;4.398;2023-04-15T09:47:09;14.80;99.90
40454;DHT22;26160;51.858;4.398;2023-04-15T09:49:55;14.90;99.90
40454;DHT22;26160;51.858;4.398;2023-04-15T09:52:22;14.90;99.90
40454;DHT22;26160;51.858;4.398;2023-04-15T09:54:52;14.90;99.90
40454;DHT22;26160;51.858;4.398;2023-04-15T09:57:19;14.70;99.90
40454;DHT22;26160;51.858;4.398;2023-04-15T09:59:47;14.60;99.90
40454;DHT22;26160;51.858;4.398;2023-04-15T10:02:13;14.70;99.90
40454;DHT22;26160;51.858;4.398;2023-04-15T10:04:40;14.90;99.90
40454;DHT22;26160;51.858;4.398;2023-04-15T10:07:08;15.10;99.90
40454;DHT22;26160;51.858;4.398;2023-04-15T10:09:38;15.30;99.90
40454;DHT22;26160;51.858;4.398;2023-04-15T10:12:04;15.60;99.90
40454;DHT22;26160;51.858;4.398;2023-04-15T10:14:33;15.90;99.90
40454;DHT22;26160;51.858;4.398;2023-04-15T10:17:01;15.60;99.90
40454;DHT22;26160;51.858;4.398;2023-04-15T10:19:30;15.30;99.90
40454;DHT22;26160;51.858;4.398;2023-04-15T10:21:58;15.40;99.90
40454;DHT22;26160;51.858;4.398;2023-04-15T10:24:24;15.30;99.90
40454;DHT22;26160;51.858;4.398;2023-04-15T10:26:51;15.40;99.90
40454;DHT22;26160;51.858;4.398;2023-04-15T10:29:17;15.50;99.90
40454;DHT22;26160;51.858;4.398;2023-04-15T10:31:45;15.30;99.90
40454;DHT22;26160;51.858;4.398;2023-04-15T10:34:11;15.50;99.90
40454;DHT22;26160;51.858;4.398;2023-04-15T10:36:38;15.60;99.90
40454;DHT22;26160;51.858;4.398;2023-04-15T10:44:32;15.20;99.90
40454;DHT22;26160;51.858;4.398;2023-04-15T10:46:58;15.20;99.90
40454;DHT22;26160;51.858;4.398;2023-04-15T10:49:25;15.50;99.90
40454;DHT22;26160;51.858;4.398;2023-04-15T10:51:53;15.70;99.90
40454;DHT22;26160;51.858;4.398;2023-04-15T10:59:32;16.00;99.90
40454;DHT22;26160;51.858;4.398;2023-04-15T11:02:02;16.00;99.90
40454;DHT22;26160;51.858;4.398;2023-04-15T11:04:57;16.20;99.90
40454;DHT22;26160;51.858;4.398;2023-04-15T11:12:44;16.10;99.90
40454;DHT22;26160;51.858;4.398;2023-04-15T11:15:33;16.10;99.90
40454;DHT22;26160;51.858;4.398;2023-04-15T11:20:40;16.20;99.90
40454;DHT22;26160;51.858;4.398;2023-04-15T11:23:08;16.60;99.90
40454;DHT22;26160;51.858;4.398;2023-04-15T11:25:35;16.90;99.90
40454;DHT22;26160;51.858;4.398;2023-04-15T11:28:04;17.00;99.90
40454;DHT22;26160;51.858;4.398;2023-04-15T11:30:33;17.00;99.90
40454;DHT22;26160;51.858;4.398;2023-04-15T11:33:01;17.20;99.90
40454;DHT22;26160;51.858;4.398;2023-04-15T11:35:28;16.90;99.90
40454;DHT22;26160;51.858;4.398;2023-04-15T11:37:55;16.60;99.90
40454;DHT22;26160;51.858;4.398;2023-04-15T11:40:22;16.60;99.90
40454;DHT22;26160;51.858;4.398;2023-04-15T11:45:32;16.80;99.90
40454;DHT22;26160;51.858;4.398;2023-04-15T11:48:09;17.10;99.90
40454;DHT22;26160;51.858;4.398;2023-04-15T11:50:37;17.20;99.90
40454;DHT22;26160;51.858;4.398;2023-04-15T11:53:08;17.20;99.90
40454;DHT22;26160;51.858;4.398;2023-04-15T11:55:48;17.30;99.90
40454;DHT22;26160;51.858;4.398;2023-04-15T11:58:24;17.40;99.90
40454;DHT22;26160;51.858;4.398;2023-04-15T12:00:56;17.60;99.90
40454;DHT22;26160;51.858;4.398;2023-04-15T12:03:28;18.10;99.90
40454;DHT22;26160;51.858;4.398;2023-04-15T12:06:22;18.30;99.90
40454;DHT22;26160;51.858;4.398;2023-04-15T12:11:27;17.80;99.90
40454;DHT22;26160;51.858;4.398;2023-04-15T12:14:11;17.70;99.90
40454;DHT22;26160;51.858;4.398;2023-04-15T12:16:45;17.50;99.90
40454;DHT22;26160;51.858;4.398;2023-04-15T12:19:17;17.70;99.90
40454;DHT22;26160;51.858;4.398;2023-04-15T12:21:45;17.50;99.90
40454;DHT22;26160;51.858;4.398;2023-04-15T12:24:13;17.60;99.90
40454;DHT22;26160;51.858;4.398;2023-04-15T12:26:46;17.80;99.90
40454;DHT22;26160;51.858;4.398;2023-04-15T12:29:14;17.80;99.90
40454;DHT22;26160;51.858;4.398;2023-04-15T12:31:52;18.10;99.90
40454;DHT22;26160;51.858;4.398;2023-04-15T12:35:00;17.70;99.90
40454;DHT22;26160;51.858;4.398;2023-04-15T12:37:25;17.20;99.90
40454;DHT22;26160;51.858;4.398;2023-04-15T12:39:51;17.40;99.90
40454;DHT22;26160;51.858;4.398;2023-04-15T12:42:19;17.70;99.90
40454;DHT22;26160;51.858;4.398;2023-04-15T12:44:45;17.10;99.90
40454;DHT22;26160;51.858;4.398;2023-04-15T12:47:12;16.90;99.90
40454;DHT22;26160;51.858;4.398;2023-04-15T12:49:38;16.80;99.90
40454;DHT22;26160;51.858;4.398;2023-04-15T12:52:04;17.10;99.90
40454;DHT22;26160;51.858;4.398;2023-04-15T12:54:31;17.20;99.90
40454;DHT22;26160;51.858;4.398;2023-04-15T12:56:58;17.20;99.90
40454;DHT22;26160;51.858;4.398;2023-04-15T12:59:24;16.70;99.90
40454;DHT22;26160;51.858;4.398;2023-04-15T13:01:51;16.10;99.90
40454;DHT22;26160;51.858;4.398;2023-04-15T13:04:18;15.80;99.90
40454;DHT22;26160;51.858;4.398;2023-04-15T13:06:44;15.60;99.90
40454;DHT22;26160;51.858;4.398;2023-04-15T13:09:11;16.10;99.90
40454;DHT22;26160;51.858;4.398;2023-04-15T13:11:37;17.00;99.90
40454;DHT22;26160;51.858;4.398;2023-04-15T13:14:05;17.50;99.90
40454;DHT22;26160;51.858;4.398;2023-04-15T13:16:31;17.70;99.90
40454;DHT22;26160;51.858;4.398;2023-04-15T13:18:58;17.70;99.90
40454;DHT22;26160;51.858;4.398;2023-04-15T13:21:25;17.50;99.90
40454;DHT22;26160;51.858;4.398;2023-04-15T13:23:52;17.30;99.90
40454;DHT22;26160;51.858;4.398;2023-04-15T13:26:18;17.60;99.90
40454;DHT22;26160;51.858;4.398;2023-04-15T13:28:44;17.70;99.90
40454;DHT22;26160;51.858;4.398;2023-04-15T13:31:11;17.70;99.90
40454;DHT22;26160;51.858;4.398;2023-04-15T13:33:37;17.20;99.90
40454;DHT22;26160;51.858;4.398;2023-04-15T13:36:03;17.40;99.90
40454;DHT22;26160;51.858;4.398;2023-04-15T13:38:30;17.10;99.90
40454;DHT22;26160;51.858;4.398;2023-04-15T13:40:56;17.00;99.90
40454;DHT22;26160;51.858;4.398;2023-04-15T13:43:22;16.90;99.90
40454;DHT22;26160;51.858;4.398;2023-04-15T13:45:48;17.10;99.90
40454;DHT22;26160;51.858;4.398;2023-04-15T13:48:14;16.70;99.90
40454;DHT22;26160;51.858;4.398;2023-04-15T13:50:41;16.90;99.90
40454;DHT22;26160;51.858;4.398;2023-04-15T13:53:11;16.70;99.90
40454;DHT22;26160;51.858;4.398;2023-04-15T13:55:37;17.20;99.90
40454;DHT22;26160;51.858;4.398;2023-04-15T13:58:10;17.40;99.90
40454;DHT22;26160;51.858;4.398;2023-04-15T14:00:36;17.60;99.90
40454;DHT22;26160;51.858;4.398;2023-04-15T14:03:03;17.60;99.90
40454;DHT22;26160;51.858;4.398;2023-04-15T14:05:29;16.80;99.90
40454;DHT22;26160;51.858;4.398;2023-04-15T14:07:55;16.20;99.90
40454;DHT22;26160;51.858;4.398;2023-04-15T14:10:21;16.80;99.90
40454;DHT22;26160;51.858;4.398;2023-04-15T14:12:47;16.80;99.90
40454;DHT22;26160;51.858;4.398;2023-04-15T14:15:13;16.60;99.90
40454;DHT22;26160;51.858;4.398;2023-04-15T14:17:39;16.30;99.90
40454;DHT22;26160;51.858;4.398;2023-04-15T14:20:07;16.30;99.90
40454;DHT22;26160;51.858;4.398;2023-04-15T14:22:34;16.40;99.90
40454;DHT22;26160;51.858;4.398;2023-04-15T14:25:00;16.10;99.90
40454;DHT22;26160;51.858;4.398;2023-04-15T14:27:27;16.10;99.90
40454;DHT22;26160;51.858;4.398;2023-04-15T14:29:53;16.20;99.90
40454;DHT22;26160;51.858;4.398;2023-04-15T14:32:20;15.90;99.90
40454;DHT22;26160;51.858;4.398;2023-04-15T14:34:46;16.00;99.90
40454;DHT22;26160;51.858;4.398;2023-04-15T14:37:12;15.90;99.90
40454;DHT22;26160;51.858;4.398;2023-04-15T14:39:38;15.40;99.90
40454;DHT22;26160;51.858;4.398;2023-04-15T14:42:04;15.40;99.90
40454;DHT22;26160;51.858;4.398;2023-04-15T14:44:30;14.90;99.90
40454;DHT22;26160;51.858;4.398;2023-04-15T14:46:57;15.00;99.90
40454;DHT22;26160;51.858;4.398;2023-04-15T14:49:23;15.30;99.90
40454;DHT22;26160;51.858;4.398;2023-04-15T14:51:49;15.80;99.90
40454;DHT22;26160;51.858;4.398;2023-04-15T14:54:16;16.00;99.90
40454;DHT22;26160;51.858;4.398;2023-04-15T14:56:42;16.20;99.90
40454;DHT22;26160;51.858;4.398;2023-04-15T14:59:08;15.90;99.90
40454;DHT22;26160;51.858;4.398;2023-04-15T15:01:34;15.70;99.90
40454;DHT22;26160;51.858;4.398;2023-04-15T15:04:00;15.70;99.90
40454;DHT22;26160;51.858;4.398;2023-04-15T15:06:26;15.50;99.90
40454;DHT22;26160;51.858;4.398;2023-04-15T15:08:52;15.40;99.90
40454;DHT22;26160;51.858;4.398;2023-04-15T15:11:18;15.30;99.90
40454;DHT22;26160;51.858;4.398;2023-04-15T15:13:44;15.40;99.90
40454;DHT22;26160;51.858;4.398;2023-04-15T15:16:11;15.80;99.90
40454;DHT22;26160;51.858;4.398;2023-04-15T15:18:37;15.90;99.90
40454;DHT22;26160;51.858;4.398;2023-04-15T15:21:03;15.30;99.90
40454;DHT22;26160;51.858;4.398;2023-04-15T15:23:29;15.20;99.90
40454;DHT22;26160;51.858;4.398;2023-04-15T15:25:57;15.00;99.90
40454;DHT22;26160;51.858;4.398;2023-04-15T15:28:24;14.90;99.90
40454;DHT22;26160;51.858;4.398;2023-04-15T15:30:50;14.50;99.90
40454;DHT22;26160;51.858;4.398;2023-04-15T15:33:16;14.40;99.90
40454;DHT22;26160;51.858;4.398;2023-04-15T15:35:43;14.20;99.90
40454;DHT22;26160;51.858;4.398;2023-04-15T15:38:10;14.20;99.90
40454;DHT22;26160;51.858;4.398;2023-04-15T15:40:37;14.20;99.90
40454;DHT22;26160;51.858;4.398;2023-04-15T15:43:03;14.40;99.90
40454;DHT22;26160;51.858;4.398;2023-04-15T15:45:29;14.30;99.90
40454;DHT22;26160;51.858;4.398;2023-04-15T15:47:56;14.10;99.90
40454;DHT22;26160;51.858;4.398;2023-04-15T15:50:25;14.20;99.90
40454;DHT22;26160;51.858;4.398;2023-04-15T15:52:51;14.00;99.90
40454;DHT22;26160;51.858;4.398;2023-04-15T15:55:18;13.70;99.90
40454;DHT22;26160;51.858;4.398;2023-04-15T15:57:44;13.90;99.90
40454;DHT22;26160;51.858;4.398;2023-04-15T16:00:10;13.90;99.90
40454;DHT22;26160;51.858;4.398;2023-04-15T16:02:37;14.10;99.90
40454;DHT22;26160;51.858;4.398;2023-04-15T16:05:03;13.90;99.90